createdAt,value
2018-06-09T00:00:21.407Z,64.89
2018-06-09T00:01:21.435Z,65.27
2018-06-09T00:02:21.466Z,65.05
2018-06-09T00:03:21.495Z,65.34
2018-06-09T00:04:21.521Z,64.95
2018-06-09T00:05:21.554Z,64.76
2018-06-09T00:06:21.580Z,64.95
2018-06-09T00:07:21.611Z,64.47
2018-06-09T00:08:21.642Z,63.50
2018-06-09T00:09:21.674Z,63.31
2018-06-09T00:10:21.701Z,63.02
2018-06-09T00:11:21.728Z,62.44
2018-06-09T00:12:21.759Z,62.53
2018-06-09T00:13:21.786Z,62.24
2018-06-09T00:14:21.816Z,61.86
2018-06-09T00:15:21.845Z,61.69
2018-06-09T00:16:21.872Z,61.76
2018-06-09T00:17:21.907Z,61.60
2018-06-09T00:18:21.934Z,61.40
2018-06-09T00:19:21.960Z,61.69
2018-06-09T00:20:21.989Z,60.92
2018-06-09T00:21:22.025Z,61.02
2018-06-09T00:22:22.050Z,61.21
2018-06-09T00:23:22.084Z,61.21
2018-06-09T00:24:22.107Z,60.99
2018-06-09T00:25:22.139Z,61.21
2018-06-09T00:26:22.166Z,61.21
2018-06-09T00:27:22.195Z,61.27
2018-06-09T00:28:22.225Z,60.89
2018-06-09T00:29:22.259Z,61.30
2018-06-09T00:30:22.286Z,60.50
2018-06-09T00:31:22.315Z,60.92
2018-06-09T00:32:22.343Z,60.99
2018-06-09T00:33:22.369Z,60.50
2018-06-09T00:34:22.400Z,60.99
2018-06-09T00:35:22.431Z,60.60
2018-06-09T00:36:22.463Z,60.11
2018-06-09T00:37:22.488Z,59.92
2018-06-09T00:38:22.515Z,59.83
2018-06-09T00:39:22.553Z,59.34
2018-06-09T00:40:22.584Z,59.34
2018-06-09T00:41:22.607Z,59.25
2018-06-09T00:42:22.634Z,59.44
2018-06-09T00:43:22.668Z,60.02
2018-06-09T00:44:22.695Z,60.41
2018-06-09T00:45:22.724Z,60.60
2018-06-09T00:46:22.757Z,60.60
2018-06-09T00:47:22.782Z,60.31
2018-06-09T00:48:22.808Z,60.69
2018-06-09T00:49:22.840Z,60.79
2018-06-09T00:50:22.865Z,60.02
2018-06-09T00:51:22.899Z,59.92
2018-06-09T00:52:22.924Z,59.92
2018-06-09T00:53:22.954Z,59.63
2018-06-09T00:54:22.989Z,59.92
2018-06-09T00:55:23.015Z,60.41
2018-06-09T00:56:23.040Z,59.92
2018-06-09T00:57:23.077Z,60.31
2018-06-09T00:58:23.103Z,60.41
2018-06-09T00:59:23.127Z,60.79
2018-06-09T01:00:23.158Z,59.92
2018-06-09T01:01:23.188Z,60.31
2018-06-09T01:02:23.219Z,61.08
2018-06-09T01:03:23.249Z,60.99
2018-06-09T01:04:23.284Z,61.08
2018-06-09T01:05:23.306Z,60.69
2018-06-09T01:06:23.333Z,61.66
2018-06-09T01:07:23.364Z,61.27
2018-06-09T01:08:23.396Z,60.89
2018-06-09T01:09:23.426Z,61.37
2018-06-09T01:10:23.452Z,60.41
2018-06-09T01:11:23.487Z,61.08
2018-06-09T01:12:23.508Z,61.08
2018-06-09T01:13:23.543Z,59.89
2018-06-09T01:14:23.567Z,59.99
2018-06-09T01:15:23.593Z,59.70
2018-06-09T01:16:23.628Z,59.99
2018-06-09T01:17:23.653Z,59.99
2018-06-09T01:18:23.700Z,59.51
2018-06-09T01:19:23.712Z,59.70
2018-06-09T01:20:23.738Z,59.80
2018-06-09T01:21:23.772Z,59.80
2018-06-09T01:22:23.797Z,59.60
2018-06-09T01:23:23.832Z,58.64
2018-06-09T01:24:23.858Z,58.06
2018-06-09T01:25:23.883Z,58.25
2018-06-09T01:26:23.914Z,57.67
2018-06-09T01:27:23.946Z,57.87
2018-06-09T01:28:23.972Z,57.09
2018-06-09T01:29:24.003Z,57.29
2018-06-09T01:30:24.032Z,56.80
2018-06-09T01:31:24.063Z,56.61
2018-06-09T01:32:24.088Z,56.80
2018-06-09T01:33:24.118Z,56.71
2018-06-09T01:34:24.148Z,56.93
2018-06-09T01:35:24.178Z,56.35
2018-06-09T01:36:24.203Z,56.15
2018-06-09T01:37:24.232Z,56.15
2018-06-09T01:38:24.262Z,55.57
2018-06-09T01:39:24.291Z,55.67
2018-06-09T01:40:24.317Z,54.90
2018-06-09T01:41:24.350Z,54.99
2018-06-09T01:42:24.380Z,54.51
2018-06-09T01:43:24.406Z,54.51
2018-06-09T01:44:24.435Z,54.61
2018-06-09T01:45:24.465Z,54.51
2018-06-09T01:46:24.491Z,54.32
2018-06-09T01:47:24.521Z,54.32
2018-06-09T01:48:24.550Z,54.90
2018-06-09T01:49:24.580Z,54.99
2018-06-09T01:50:24.610Z,54.61
2018-06-09T01:51:24.649Z,54.68
2018-06-09T01:52:24.665Z,54.51
2018-06-09T01:53:24.693Z,54.32
2018-06-09T01:54:24.724Z,54.22
2018-06-09T01:55:24.755Z,54.22
2018-06-09T01:56:24.783Z,54.13
2018-06-09T01:57:24.813Z,54.03
2018-06-09T01:58:24.848Z,53.83
2018-06-09T01:59:24.869Z,53.93
2018-06-09T02:00:24.897Z,53.93
2018-06-09T02:01:24.933Z,53.83
2018-06-09T02:02:24.958Z,54.41
2018-06-09T02:03:24.987Z,54.71
2018-06-09T02:04:25.013Z,54.61
2018-06-09T02:05:25.048Z,54.41
2018-06-09T02:06:25.070Z,54.19
2018-06-09T02:07:25.099Z,54.77
2018-06-09T02:08:25.130Z,54.97
2018-06-09T02:09:25.160Z,54.87
2018-06-09T02:10:25.194Z,54.87
2018-06-09T02:11:25.216Z,54.97
2018-06-09T02:12:25.243Z,54.77
2018-06-09T02:13:25.274Z,55.55
2018-06-09T02:14:25.305Z,54.97
2018-06-09T02:15:25.333Z,54.68
2018-06-09T02:16:25.363Z,54.87
2018-06-09T02:17:25.390Z,54.97
2018-06-09T02:18:25.420Z,54.58
2018-06-09T02:19:25.456Z,54.58
2018-06-09T02:20:25.479Z,54.29
2018-06-09T02:21:25.503Z,54.00
2018-06-09T02:22:25.533Z,54.68
2018-06-09T02:23:25.567Z,54.19
2018-06-09T02:24:25.593Z,54.00
2018-06-09T02:25:25.619Z,54.03
2018-06-09T02:26:25.649Z,54.49
2018-06-09T02:27:25.679Z,54.19
2018-06-09T02:28:25.714Z,54.29
2018-06-09T02:29:25.741Z,54.49
2018-06-09T02:30:25.769Z,54.39
2018-06-09T02:31:25.794Z,54.87
2018-06-09T02:32:25.823Z,54.49
2018-06-09T02:33:25.861Z,54.58
2018-06-09T02:34:25.890Z,54.68
2018-06-09T02:35:25.915Z,54.39
2018-06-09T02:36:25.940Z,54.39
2018-06-09T02:37:25.970Z,54.39
2018-06-09T02:38:25.996Z,54.29
2018-06-09T02:39:26.029Z,54.68
2018-06-09T02:40:26.062Z,54.39
2018-06-09T02:41:26.087Z,54.39
2018-06-09T02:42:26.112Z,54.58
2018-06-09T02:43:26.147Z,54.39
2018-06-09T02:44:26.173Z,54.29
2018-06-09T02:45:26.240Z,54.39
2018-06-09T02:46:26.228Z,54.39
2018-06-09T02:47:26.265Z,54.10
2018-06-09T02:48:26.288Z,53.91
2018-06-09T02:49:26.313Z,54.10
2018-06-09T02:50:26.344Z,54.29
2018-06-09T02:51:26.372Z,54.10
2018-06-09T02:52:26.403Z,53.23
2018-06-09T02:53:26.432Z,53.13
2018-06-09T02:54:26.464Z,53.23
2018-06-09T02:55:26.487Z,53.33
2018-06-09T02:56:26.522Z,53.13
2018-06-09T02:57:26.552Z,53.33
2018-06-09T02:58:26.581Z,53.23
2018-06-09T02:59:26.611Z,53.33
2018-06-09T03:00:26.633Z,53.91
2018-06-09T03:01:26.663Z,53.71
2018-06-09T03:02:26.693Z,53.42
2018-06-09T03:03:26.721Z,52.84
2018-06-09T03:04:26.751Z,53.33
2018-06-09T03:05:26.781Z,53.03
2018-06-09T03:06:26.808Z,52.84
2018-06-09T03:07:26.894Z,52.55
2018-06-09T03:08:26.864Z,52.45
2018-06-09T03:09:26.891Z,52.45
2018-06-09T03:10:26.924Z,52.65
2018-06-09T03:11:26.952Z,52.55
2018-06-09T03:12:26.983Z,52.65
2018-06-09T03:13:27.013Z,52.65
2018-06-09T03:14:27.039Z,53.03
2018-06-09T03:15:27.068Z,53.03
2018-06-09T03:16:27.098Z,53.13
2018-06-09T03:17:27.128Z,53.42
2018-06-09T03:18:27.152Z,53.33
2018-06-09T03:19:27.182Z,53.13
2018-06-09T03:20:27.216Z,53.91
2018-06-09T03:21:27.246Z,53.93
2018-06-09T03:22:27.275Z,53.23
2018-06-09T03:23:27.299Z,53.42
2018-06-09T03:24:27.329Z,53.91
2018-06-09T03:25:27.357Z,53.81
2018-06-09T03:26:27.390Z,53.91
2018-06-09T03:27:27.423Z,54.19
2018-06-09T03:28:27.441Z,53.91
2018-06-09T03:29:27.475Z,53.91
2018-06-09T03:30:27.500Z,53.33
2018-06-09T03:31:27.538Z,54.10
2018-06-09T03:32:27.569Z,53.81
2018-06-09T03:33:27.590Z,53.81
2018-06-09T03:34:27.620Z,53.23
2018-06-09T03:35:27.647Z,54.00
2018-06-09T03:36:27.677Z,53.91
2018-06-09T03:37:27.707Z,53.13
2018-06-09T03:38:27.737Z,52.36
2018-06-09T03:39:27.765Z,52.45
2018-06-09T03:40:27.792Z,52.55
2018-06-09T03:41:27.821Z,51.97
2018-06-09T03:42:27.851Z,52.26
2018-06-09T03:43:27.973Z,52.65
2018-06-09T03:44:27.906Z,52.29
2018-06-09T03:45:27.941Z,52.39
2018-06-09T03:46:27.970Z,52.67
2018-06-09T03:47:27.993Z,52.39
2018-06-09T03:48:28.023Z,51.81
2018-06-09T03:49:28.052Z,51.81
2018-06-09T03:50:28.128Z,51.90
2018-06-09T03:51:28.111Z,51.71
2018-06-09T03:52:28.141Z,51.32
2018-06-09T03:53:28.166Z,51.03
2018-06-09T03:54:28.198Z,51.51
2018-06-09T03:55:28.228Z,51.03
2018-06-09T03:56:28.256Z,51.32
2018-06-09T03:57:28.281Z,51.42
2018-06-09T03:58:28.310Z,50.35
2018-06-09T03:59:28.345Z,50.84
2018-06-09T04:00:28.374Z,51.03
2018-06-09T04:01:28.395Z,51.42
2018-06-09T04:02:28.426Z,50.65
2018-06-09T04:03:28.460Z,50.74
2018-06-09T04:04:28.493Z,50.65
2018-06-09T04:05:28.513Z,50.93
2018-06-09T04:06:28.551Z,50.55
2018-06-09T04:07:28.571Z,50.84
2018-06-09T04:08:28.600Z,51.81
2018-06-09T04:09:28.635Z,51.81
2018-06-09T04:10:28.655Z,51.90
2018-06-09T04:11:28.690Z,51.23
2018-06-09T04:12:28.718Z,51.13
2018-06-09T04:13:28.745Z,51.32
2018-06-09T04:14:28.774Z,51.23
2018-06-09T04:15:28.805Z,51.81
2018-06-09T04:16:28.831Z,51.71
2018-06-09T04:17:28.863Z,50.45
2018-06-09T04:18:28.893Z,50.35
2018-06-09T04:19:28.922Z,51.32
2018-06-09T04:20:28.956Z,50.55
2018-06-09T04:21:28.975Z,50.16
2018-06-09T04:22:29.004Z,50.74
2018-06-09T04:23:29.040Z,50.74
2018-06-09T04:24:29.064Z,50.55
2018-06-09T04:25:29.096Z,51.32
2018-06-09T04:26:29.125Z,51.90
2018-06-09T04:27:29.153Z,51.81
2018-06-09T04:28:29.180Z,51.54
2018-06-09T04:29:29.210Z,50.93
2018-06-09T04:30:29.239Z,50.55
2018-06-09T04:31:29.269Z,50.84
2018-06-09T04:32:29.295Z,50.74
2018-06-09T04:33:29.325Z,50.35
2018-06-09T04:34:29.355Z,50.35
2018-06-09T04:35:29.385Z,50.45
2018-06-09T04:36:29.408Z,50.35
2018-06-09T04:37:29.444Z,50.84
2018-06-09T04:38:29.469Z,50.74
2018-06-09T04:39:29.501Z,50.35
2018-06-09T04:40:29.528Z,51.32
2018-06-09T04:41:29.559Z,50.35
2018-06-09T04:42:29.589Z,49.77
2018-06-09T04:43:29.621Z,49.87
2018-06-09T04:44:29.648Z,49.68
2018-06-09T04:45:29.679Z,49.97
2018-06-09T04:46:29.709Z,49.87
2018-06-09T04:47:29.732Z,49.77
2018-06-09T04:48:29.762Z,49.29
2018-06-09T04:49:29.792Z,49.77
2018-06-09T04:50:29.823Z,49.49
2018-06-09T04:51:29.856Z,49.19
2018-06-09T04:52:29.878Z,49.19
2018-06-09T04:53:29.905Z,49.29
2018-06-09T04:54:29.935Z,49.19
2018-06-09T04:55:29.964Z,48.71
2018-06-09T04:56:29.997Z,49.19
2018-06-09T04:57:30.028Z,49.29
2018-06-09T04:58:30.115Z,48.13
2018-06-09T04:59:30.079Z,49.10
2018-06-09T05:00:30.110Z,49.29
2018-06-09T05:01:30.141Z,49.10
2018-06-09T05:02:30.164Z,48.90
2018-06-09T05:03:30.194Z,48.32
2018-06-09T05:04:30.225Z,48.81
2018-06-09T05:05:30.249Z,47.74
2018-06-09T05:06:30.289Z,47.94
2018-06-09T05:07:30.313Z,47.55
2018-06-09T05:08:30.342Z,46.88
2018-06-09T05:09:30.369Z,47.36
2018-06-09T05:10:30.398Z,46.78
2018-06-09T05:11:30.434Z,46.88
2018-06-09T05:12:30.455Z,46.00
2018-06-09T05:13:30.484Z,46.30
2018-06-09T05:14:30.518Z,46.10
2018-06-09T05:15:30.547Z,45.62
2018-06-09T05:16:30.574Z,45.01
2018-06-09T05:17:30.601Z,45.14
2018-06-09T05:18:30.636Z,44.75
2018-06-09T05:19:30.659Z,44.94
2018-06-09T05:20:30.687Z,45.23
2018-06-09T05:21:30.717Z,45.23
2018-06-09T05:22:30.743Z,44.65
2018-06-09T05:23:30.778Z,43.98
2018-06-09T05:24:30.806Z,43.88
2018-06-09T05:25:30.834Z,43.78
2018-06-09T05:26:30.867Z,43.88
2018-06-09T05:27:30.891Z,43.78
2018-06-09T05:28:30.924Z,44.36
2018-06-09T05:29:30.953Z,43.78
2018-06-09T05:30:30.981Z,44.17
2018-06-09T05:31:31.007Z,44.46
2018-06-09T05:32:31.032Z,44.94
2018-06-09T05:33:31.064Z,44.65
2018-06-09T05:34:31.093Z,45.04
2018-06-09T05:35:31.123Z,44.75
2018-06-09T05:36:31.149Z,44.84
2018-06-09T05:37:31.178Z,44.65
2018-06-09T05:38:31.208Z,45.33
2018-06-09T05:39:31.237Z,45.23
2018-06-09T05:40:31.270Z,45.04
2018-06-09T05:41:31.296Z,46.10
2018-06-09T05:42:31.331Z,46.10
2018-06-09T05:43:31.357Z,45.81
2018-06-09T05:44:31.387Z,46.20
2018-06-09T05:45:31.407Z,46.20
2018-06-09T05:46:31.441Z,46.49
2018-06-09T05:47:31.470Z,46.78
2018-06-09T05:48:31.497Z,46.49
2018-06-09T05:49:31.564Z,46.39
2018-06-09T05:50:31.556Z,46.49
2018-06-09T05:51:31.586Z,46.39
2018-06-09T05:52:31.612Z,46.68
2018-06-09T05:53:31.649Z,46.75
2018-06-09T05:54:31.672Z,46.30
2018-06-09T05:55:31.751Z,46.78
2018-06-09T05:56:31.729Z,47.55
2018-06-09T05:57:31.761Z,46.88
2018-06-09T05:58:31.792Z,46.49
2018-06-09T05:59:31.813Z,47.07
2018-06-09T06:00:31.843Z,46.88
2018-06-09T06:01:31.881Z,48.32
2018-06-09T06:02:31.903Z,48.71
2018-06-09T06:03:31.929Z,49.49
2018-06-09T06:04:31.957Z,50.65
2018-06-09T06:05:31.987Z,50.74
2018-06-09T06:06:32.016Z,51.51
2018-06-09T06:07:32.047Z,51.61
2018-06-09T06:08:32.077Z,50.65
2018-06-09T06:09:32.102Z,49.39
2018-06-09T06:10:32.140Z,49.00
2018-06-09T06:11:32.171Z,49.29
2018-06-09T06:12:32.191Z,49.77
2018-06-09T06:13:32.220Z,49.97
2018-06-09T06:14:32.246Z,49.19
2018-06-09T06:15:32.285Z,49.39
2018-06-09T06:16:32.309Z,49.49
2018-06-09T06:17:32.336Z,48.88
2018-06-09T06:18:32.369Z,48.71
2018-06-09T06:19:32.396Z,48.71
2018-06-09T06:20:32.425Z,48.03
2018-06-09T06:21:32.449Z,48.52
2018-06-09T06:22:32.484Z,48.81
2018-06-09T06:23:32.512Z,48.52
2018-06-09T06:24:32.557Z,48.71
2018-06-09T06:25:32.568Z,49.10
2018-06-09T06:26:32.595Z,48.71
2018-06-09T06:27:32.625Z,48.71
2018-06-09T06:28:32.659Z,48.52
2018-06-09T06:29:32.680Z,48.32
2018-06-09T06:30:32.712Z,48.81
2018-06-09T06:31:32.744Z,49.00
2018-06-09T06:32:32.770Z,48.90
2018-06-09T06:33:32.804Z,49.77
2018-06-09T06:34:32.824Z,49.19
2018-06-09T06:35:32.864Z,48.03
2018-06-09T06:36:32.899Z,47.55
2018-06-09T06:37:32.916Z,47.84
2018-06-09T06:38:32.949Z,48.03
2018-06-09T06:39:32.977Z,47.36
2018-06-09T06:40:33.006Z,47.36
2018-06-09T06:41:33.041Z,47.07
2018-06-09T06:42:33.065Z,47.07
2018-06-09T06:43:33.096Z,46.68
2018-06-09T06:44:33.115Z,46.58
2018-06-09T06:45:33.153Z,46.68
2018-06-09T06:46:33.174Z,46.88
2018-06-09T06:47:33.205Z,45.91
2018-06-09T06:48:33.237Z,46.20
2018-06-09T06:49:33.260Z,45.72
2018-06-09T06:50:33.299Z,45.52
2018-06-09T06:51:33.321Z,45.81
2018-06-09T06:52:33.349Z,46.49
2018-06-09T06:53:33.384Z,46.20
2018-06-09T06:54:33.412Z,45.62
2018-06-09T06:55:33.439Z,45.62
2018-06-09T06:56:33.491Z,45.81
2018-06-09T06:57:33.504Z,45.14
2018-06-09T06:58:33.525Z,45.14
2018-06-09T06:59:33.558Z,46.00
2018-06-09T07:00:33.584Z,46.00
2018-06-09T07:01:33.609Z,45.91
2018-06-09T07:02:33.640Z,45.91
2018-06-09T07:03:33.671Z,46.10
2018-06-09T07:04:33.706Z,46.49
2018-06-09T07:05:33.729Z,45.93
2018-06-09T07:06:33.757Z,46.22
2018-06-09T07:07:33.784Z,46.12
2018-06-09T07:08:33.808Z,47.28
2018-06-09T07:09:33.844Z,46.70
2018-06-09T07:10:33.869Z,46.12
2018-06-09T07:11:33.899Z,46.12
2018-06-09T07:12:33.929Z,46.22
2018-06-09T07:13:34.063Z,46.61
2018-06-09T07:14:33.989Z,46.61
2018-06-09T07:15:34.024Z,46.51
2018-06-09T07:16:34.047Z,47.00
2018-06-09T07:17:34.074Z,47.07
2018-06-09T07:18:34.104Z,47.00
2018-06-09T07:19:34.137Z,46.80
2018-06-09T07:20:34.164Z,47.00
2018-06-09T07:21:34.189Z,46.32
2018-06-09T07:22:34.219Z,46.51
2018-06-09T07:23:34.252Z,47.38
2018-06-09T07:24:34.284Z,47.28
2018-06-09T07:25:34.304Z,47.31
2018-06-09T07:26:34.339Z,47.86
2018-06-09T07:27:34.368Z,48.27
2018-06-09T07:28:34.393Z,47.99
2018-06-09T07:29:34.429Z,48.37
2018-06-09T07:30:34.457Z,48.18
2018-06-09T07:31:34.483Z,47.89
2018-06-09T07:32:34.509Z,47.50
2018-06-09T07:33:34.539Z,47.41
2018-06-09T07:34:34.568Z,48.27
2018-06-09T07:35:34.601Z,47.43
2018-06-09T07:36:34.627Z,47.60
2018-06-09T07:37:34.663Z,46.73
2018-06-09T07:38:34.683Z,47.21
2018-06-09T07:39:34.716Z,47.31
2018-06-09T07:40:34.746Z,46.83
2018-06-09T07:41:34.772Z,46.83
2018-06-09T07:42:34.806Z,47.50
2018-06-09T07:43:34.832Z,47.11
2018-06-09T07:44:34.863Z,46.73
2018-06-09T07:45:34.891Z,46.66
2018-06-09T07:46:34.923Z,46.75
2018-06-09T07:47:34.948Z,46.36
2018-06-09T07:48:34.978Z,47.43
2018-06-09T07:49:35.007Z,46.19
2018-06-09T07:50:35.038Z,45.71
2018-06-09T07:51:35.072Z,46.00
2018-06-09T07:52:35.098Z,46.29
2018-06-09T07:53:35.123Z,46.29
2018-06-09T07:54:35.156Z,46.31
2018-06-09T07:55:35.186Z,46.12
2018-06-09T07:56:35.219Z,45.34
2018-06-09T07:57:35.245Z,45.07
2018-06-09T07:58:35.275Z,45.47
2018-06-09T07:59:35.321Z,44.49
2018-06-09T08:00:35.335Z,44.59
2018-06-09T08:01:35.362Z,44.88
2018-06-09T08:02:35.392Z,44.81
2018-06-09T08:03:35.424Z,43.06
2018-06-09T08:04:35.453Z,42.96
2018-06-09T08:05:35.484Z,43.54
2018-06-09T08:06:35.514Z,43.16
2018-06-09T08:07:35.545Z,42.50
2018-06-09T08:08:35.581Z,42.89
2018-06-09T08:09:35.605Z,43.37
2018-06-09T08:10:35.632Z,43.16
2018-06-09T08:11:35.662Z,43.37
2018-06-09T08:12:35.689Z,43.26
2018-06-09T08:13:35.720Z,42.77
2018-06-09T08:14:35.755Z,42.09
2018-06-09T08:15:35.788Z,41.80
2018-06-09T08:16:35.811Z,42.36
2018-06-09T08:17:35.850Z,43.04
2018-06-09T08:18:35.870Z,42.94
2018-06-09T08:19:35.901Z,42.94
2018-06-09T08:20:35.931Z,42.94
2018-06-09T08:21:35.961Z,43.72
2018-06-09T08:22:35.990Z,43.82
2018-06-09T08:23:36.032Z,44.13
2018-06-09T08:24:36.057Z,43.45
2018-06-09T08:25:36.080Z,45.29
2018-06-09T08:26:36.115Z,44.13
2018-06-09T08:27:36.150Z,43.16
2018-06-09T08:28:36.175Z,43.16
2018-06-09T08:29:36.211Z,43.18
2018-06-09T08:30:36.241Z,42.11
2018-06-09T08:31:36.272Z,41.94
2018-06-09T08:32:36.296Z,41.64
2018-06-09T08:33:36.327Z,40.29
2018-06-09T08:34:36.356Z,40.48
2018-06-09T08:35:36.401Z,40.48
2018-06-09T08:36:36.472Z,40.29
2018-06-09T08:37:36.456Z,40.48
2018-06-09T08:38:36.479Z,40.01
2018-06-09T08:39:36.512Z,39.72
2018-06-09T08:40:36.541Z,39.82
2018-06-09T08:41:36.566Z,39.92
2018-06-09T08:42:36.600Z,39.62
2018-06-09T08:43:36.636Z,39.62
2018-06-09T08:44:36.664Z,40.21
2018-06-09T08:45:36.689Z,39.62
2018-06-09T08:46:36.726Z,39.82
2018-06-09T08:47:36.751Z,39.84
2018-06-09T08:48:36.789Z,39.36
2018-06-09T08:49:36.819Z,39.26
2018-06-09T08:50:36.844Z,38.67
2018-06-09T08:51:36.875Z,38.29
2018-06-09T08:52:36.905Z,39.84
2018-06-09T08:53:36.934Z,39.06
2018-06-09T08:54:37.017Z,38.96
2018-06-09T08:55:36.998Z,39.75
2018-06-09T08:56:37.030Z,39.84
2018-06-09T08:57:37.060Z,39.65
2018-06-09T08:58:37.092Z,39.36
2018-06-09T08:59:37.120Z,39.37
2018-06-09T09:00:37.148Z,39.36
2018-06-09T09:01:37.190Z,39.45
2018-06-09T09:02:37.209Z,39.06
2018-06-09T09:03:37.248Z,39.84
2018-06-09T09:04:37.279Z,39.45
2018-06-09T09:05:37.306Z,39.06
2018-06-09T09:06:37.344Z,39.06
2018-06-09T09:07:37.368Z,39.65
2018-06-09T09:08:37.394Z,40.13
2018-06-09T09:09:37.430Z,39.84
2018-06-09T09:10:37.462Z,39.43
2018-06-09T09:11:37.493Z,39.16
2018-06-09T09:12:37.524Z,39.82
2018-06-09T09:13:37.551Z,39.82
2018-06-09T09:14:37.602Z,39.75
2018-06-09T09:15:37.615Z,39.36
2018-06-09T09:16:37.646Z,39.45
2018-06-09T09:17:37.675Z,39.84
2018-06-09T09:18:37.710Z,39.84
2018-06-09T09:19:37.735Z,39.75
2018-06-09T09:20:37.771Z,39.65
2018-06-09T09:21:37.801Z,39.36
2018-06-09T09:22:37.832Z,39.75
2018-06-09T09:23:37.858Z,40.33
2018-06-09T09:24:37.899Z,40.62
2018-06-09T09:25:37.920Z,40.42
2018-06-09T09:26:37.956Z,40.13
2018-06-09T09:27:37.981Z,40.72
2018-06-09T09:28:38.014Z,40.34
2018-06-09T09:29:38.045Z,39.76
2018-06-09T09:30:38.095Z,40.15
2018-06-09T09:31:38.114Z,40.15
2018-06-09T09:32:38.138Z,39.78
2018-06-09T09:33:38.177Z,40.37
2018-06-09T09:34:38.201Z,39.69
2018-06-09T09:35:38.232Z,39.29
2018-06-09T09:36:38.258Z,39.03
2018-06-09T09:37:38.289Z,39.14
2018-06-09T09:38:38.322Z,39.14
2018-06-09T09:39:38.353Z,38.26
2018-06-09T09:40:38.384Z,38.36
2018-06-09T09:41:38.418Z,38.56
2018-06-09T09:42:38.444Z,38.64
2018-06-09T09:43:38.482Z,38.95
2018-06-09T09:44:38.511Z,39.34
2018-06-09T09:45:38.537Z,38.46
2018-06-09T09:46:38.577Z,39.06
2018-06-09T09:47:38.606Z,39.14
2018-06-09T09:48:38.632Z,38.75
2018-06-09T09:49:38.663Z,38.46
2018-06-09T09:50:38.698Z,40.42
2018-06-09T09:51:38.727Z,38.48
2018-06-09T09:52:38.761Z,39.16
2018-06-09T09:53:38.797Z,38.07
2018-06-09T09:54:38.827Z,37.48
2018-06-09T09:55:38.852Z,38.65
2018-06-09T09:56:38.882Z,38.85
2018-06-09T09:57:38.917Z,38.95
2018-06-09T09:58:38.947Z,37.77
2018-06-09T09:59:38.977Z,38.17
2018-06-09T10:00:39.011Z,37.87
2018-06-09T10:01:39.040Z,38.36
2018-06-09T10:02:39.080Z,38.56
2018-06-09T10:03:39.102Z,38.36
2018-06-09T10:04:39.195Z,38.28
2018-06-09T10:05:39.166Z,38.18
2018-06-09T10:06:39.207Z,38.46
2018-06-09T10:07:39.236Z,37.79
2018-06-09T10:08:39.257Z,38.67
2018-06-09T10:09:39.297Z,37.31
2018-06-09T10:10:39.322Z,37.13
2018-06-09T10:11:39.363Z,37.91
2018-06-09T10:12:39.388Z,37.43
2018-06-09T10:13:39.416Z,38.01
2018-06-09T10:14:39.451Z,37.05
2018-06-09T10:15:39.485Z,37.05
2018-06-09T10:16:39.516Z,36.37
2018-06-09T10:17:39.550Z,35.71
2018-06-09T10:18:39.579Z,35.41
2018-06-09T10:19:39.606Z,34.92
2018-06-09T10:20:39.645Z,35.22
2018-06-09T10:21:39.675Z,34.83
2018-06-09T10:22:39.704Z,33.65
2018-06-09T10:23:39.732Z,33.87
2018-06-09T10:24:39.770Z,33.69
2018-06-09T10:25:39.796Z,33.89
2018-06-09T10:26:39.826Z,32.52
2018-06-09T10:27:39.864Z,31.75
2018-06-09T10:28:39.899Z,32.35
2018-06-09T10:29:39.922Z,33.14
2018-06-09T10:30:39.963Z,32.65
2018-06-09T10:31:40.004Z,31.98
2018-06-09T10:32:40.028Z,31.88
2018-06-09T10:33:40.062Z,31.00
2018-06-09T10:34:40.086Z,32.27
2018-06-09T10:35:40.123Z,31.98
2018-06-09T10:36:40.153Z,32.37
2018-06-09T10:37:40.192Z,31.10
2018-06-09T10:38:40.267Z,31.77
2018-06-09T10:39:40.251Z,31.88
2018-06-09T10:40:40.284Z,32.46
2018-06-09T10:41:40.313Z,30.69
2018-06-09T10:42:40.348Z,31.00
2018-06-09T10:43:40.377Z,30.22
2018-06-09T10:44:40.416Z,28.64
2018-06-09T10:45:40.453Z,28.74
2018-06-09T10:46:40.476Z,29.52
2018-06-09T10:47:40.511Z,29.52
2018-06-09T10:48:40.540Z,29.73
2018-06-09T10:49:40.579Z,29.24
2018-06-09T10:50:40.610Z,28.85
2018-06-09T10:51:40.642Z,28.75
2018-06-09T10:52:40.670Z,28.26
2018-06-09T10:53:40.705Z,28.08
2018-06-09T10:54:40.740Z,28.65
2018-06-09T10:55:40.770Z,28.54
2018-06-09T10:56:40.799Z,29.63
2018-06-09T10:57:40.835Z,28.75
2018-06-09T10:58:40.867Z,28.28
2018-06-09T10:59:40.903Z,28.77
2018-06-09T11:00:40.938Z,28.88
2018-06-09T11:01:40.964Z,29.95
2018-06-09T11:02:41.009Z,28.89
2018-06-09T11:03:41.033Z,27.91
2018-06-09T11:04:41.069Z,27.81
2018-06-09T11:05:41.110Z,27.42
2018-06-09T11:06:41.129Z,27.23
2018-06-09T11:07:41.165Z,27.44
2018-06-09T11:08:41.204Z,27.52
2018-06-09T11:09:41.235Z,27.33
2018-06-09T11:10:41.268Z,26.62
2018-06-09T11:11:41.309Z,26.82
2018-06-09T11:12:41.336Z,26.43
2018-06-09T11:13:41.364Z,27.12
2018-06-09T11:14:41.403Z,26.35
2018-06-09T11:15:41.435Z,25.99
2018-06-09T11:16:41.464Z,25.62
2018-06-09T11:17:41.504Z,24.19
2018-06-09T11:18:41.535Z,22.73
2018-06-09T11:19:41.569Z,22.36
2018-06-09T11:20:41.600Z,22.08
2018-06-09T11:21:41.635Z,20.12
2018-06-09T11:22:41.674Z,19.45
2018-06-09T11:23:41.704Z,19.17
2018-06-09T11:24:41.740Z,18.38
2018-06-09T11:25:41.785Z,17.99
2018-06-09T11:26:41.810Z,18.59
2018-06-09T11:27:41.845Z,17.80
2018-06-09T11:28:41.885Z,18.78
2018-06-09T11:29:41.925Z,18.87
2018-06-09T11:30:41.954Z,19.15
2018-06-09T11:31:42.020Z,19.05
2018-06-09T11:32:42.029Z,19.55
2018-06-09T11:33:42.058Z,19.43
2018-06-09T11:34:42.101Z,18.94
2018-06-09T11:35:42.137Z,18.06
2018-06-09T11:36:42.169Z,18.07
2018-06-09T11:37:42.208Z,18.65
2018-06-09T11:38:42.247Z,18.84
2018-06-09T11:39:42.288Z,19.53
2018-06-09T11:40:42.316Z,19.04
2018-06-09T11:41:42.367Z,18.96
2018-06-09T11:42:42.388Z,18.85
2018-06-09T11:43:42.428Z,18.55
2018-06-09T11:44:42.464Z,19.04
2018-06-09T11:45:42.501Z,20.52
2018-06-09T11:46:42.539Z,19.34
2018-06-09T11:47:42.574Z,19.92
2018-06-09T11:48:42.609Z,18.63
2018-06-09T11:49:42.644Z,18.06
2018-06-09T11:50:42.694Z,17.18
2018-06-09T11:51:42.721Z,17.18
2018-06-09T11:52:42.756Z,16.30
2018-06-09T11:53:42.797Z,16.20
2018-06-09T11:54:42.833Z,16.59
2018-06-09T11:55:42.862Z,17.57
2018-06-09T11:56:42.903Z,17.87
2018-06-09T11:57:42.946Z,17.68
2018-06-09T11:58:43.065Z,16.89
2018-06-09T11:59:43.016Z,16.50
2018-06-09T12:00:43.051Z,16.58
2018-06-09T12:01:43.127Z,16.69
2018-06-09T12:02:43.122Z,17.69
2018-06-09T12:03:43.162Z,18.01
2018-06-09T12:04:43.198Z,17.02
2018-06-09T12:05:43.232Z,15.64
2018-06-09T12:06:43.272Z,14.75
2018-06-09T12:07:43.309Z,14.25
2018-06-09T12:08:43.346Z,14.26
2018-06-09T12:09:43.381Z,13.37
2018-06-09T12:10:43.422Z,13.46
2018-06-09T12:11:43.458Z,13.47
2018-06-09T12:12:43.498Z,13.37
2018-06-09T12:13:43.534Z,12.88
2018-06-09T12:14:43.572Z,13.10
2018-06-09T12:15:43.616Z,12.71
2018-06-09T12:16:43.649Z,12.50
2018-06-09T12:17:43.685Z,12.69
2018-06-09T12:18:43.724Z,12.30
2018-06-09T12:19:43.765Z,13.08
2018-06-09T12:20:43.801Z,13.48
2018-06-09T12:21:43.837Z,12.59
2018-06-09T12:22:43.880Z,12.40
2018-06-09T12:23:43.917Z,12.78
2018-06-09T12:24:43.963Z,13.05
2018-06-09T12:25:43.986Z,14.03
2018-06-09T12:26:44.027Z,15.11
2018-06-09T12:27:44.066Z,15.12
2018-06-09T12:28:44.111Z,14.34
2018-06-09T12:29:44.146Z,14.53
2018-06-09T12:30:44.185Z,13.67
2018-06-09T12:31:44.215Z,13.96
2018-06-09T12:32:44.256Z,12.87
2018-06-09T12:33:44.296Z,13.35
2018-06-09T12:34:44.334Z,14.04
2018-06-09T12:35:44.375Z,13.46
2018-06-09T12:36:44.405Z,12.18
2018-06-09T12:37:44.445Z,11.69
2018-06-09T12:38:44.488Z,10.52
2018-06-09T12:39:44.520Z,10.31
2018-06-09T12:40:44.560Z,11.21
2018-06-09T12:41:44.600Z,10.79
2018-06-09T12:42:44.640Z,11.08
2018-06-09T12:43:44.681Z,10.86
2018-06-09T12:44:44.724Z,11.74
2018-06-09T12:45:44.759Z,12.14
2018-06-09T12:46:44.794Z,12.73
2018-06-09T12:47:44.830Z,12.04
2018-06-09T12:48:44.895Z,11.35
2018-06-09T12:49:44.906Z,10.86
2018-06-09T12:50:44.958Z,10.79
2018-06-09T12:51:44.979Z,9.72
2018-06-09T12:52:45.026Z,9.14